GLO2062 SBGR-SBCF
Flight info
| Callsign | GLO2062 |
|---|---|
| Flight time | N/A |
| Altitude | 33000 |
| Route | NUXEL UZ23 KIBAP |
| Aircraft | B738/M-SDE2E3FGHIRWXY/LB1 |
Departure
| Time | 2026-05-06 07:33 |
|---|---|
| Airport | São Paulo/Guarulhos–Governor André Franco Montoro International Airport (SBGR) |
Arrival
| Time | N/A |
|---|---|
| Airport | Tancredo Neves International Airport (SBCF) |
| Time | Latitude | Longitude | Altitude | Speed | Heading |
|---|---|---|---|---|---|
| 2026-05-06 07:15 | -23.42810 | -46.48683 | 2467 ft | 0 kts | 57° |
| 2026-05-06 07:25 | -23.42817 | -46.48695 | 2467 ft | 2 kts | 57° |
| 2026-05-06 07:25 | -23.42826 | -46.48710 | 2467 ft | 2 kts | 57° |
| 2026-05-06 07:26 | -23.42835 | -46.48724 | 2467 ft | 2 kts | 56° |
| 2026-05-06 07:26 | -23.42844 | -46.48739 | 2467 ft | 2 kts | 55° |
| 2026-05-06 07:26 | -23.42848 | -46.48745 | 2467 ft | 0 kts | 55° |
| 2026-05-06 07:28 | -23.42846 | -46.48740 | 2467 ft | 1 kts | 66° |
| 2026-05-06 07:28 | -23.42845 | -46.48733 | 2467 ft | 1 kts | 97° |
| 2026-05-06 07:28 | -23.42866 | -46.48719 | 2467 ft | 5 kts | 183° |
| 2026-05-06 07:29 | -23.42886 | -46.48719 | 2467 ft | 3 kts | 149° |
| 2026-05-06 07:29 | -23.42895 | -46.48708 | 2467 ft | 1 kts | 126° |
| 2026-05-06 07:29 | -23.42912 | -46.48682 | 2467 ft | 5 kts | 123° |
| 2026-05-06 07:29 | -23.42950 | -46.48613 | 2467 ft | 15 kts | 118° |
| 2026-05-06 07:30 | -23.43007 | -46.48536 | 2467 ft | 15 kts | 144° |
| 2026-05-06 07:30 | -23.43074 | -46.48484 | 2467 ft | 12 kts | 144° |
| 2026-05-06 07:30 | -23.43146 | -46.48433 | 2467 ft | 15 kts | 152° |
| 2026-05-06 07:30 | -23.43225 | -46.48397 | 2467 ft | 16 kts | 159° |
| 2026-05-06 07:31 | -23.43343 | -46.48330 | 2467 ft | 22 kts | 133° |
| 2026-05-06 07:31 | -23.43391 | -46.48247 | 2467 ft | 4 kts | 104° |
| 2026-05-06 07:31 | -23.43395 | -46.48206 | 2467 ft | 0 kts | 76° |
| 2026-05-06 07:32 | -23.43393 | -46.48197 | 2467 ft | 12 kts | 74° |
| 2026-05-06 07:32 | -23.43297 | -46.47883 | 2467 ft | 75 kts | 71° |
| 2026-05-06 07:32 | -23.43073 | -46.47130 | 2468 ft | 132 kts | 72° |
| 2026-05-06 07:33 | -23.42786 | -46.46022 | 2563 ft | 171 kts | 75° |
| 2026-05-06 07:33 | -23.42508 | -46.44686 | 2968 ft | 194 kts | 77° |
| 2026-05-06 07:33 | -23.42126 | -46.43187 | 3458 ft | 209 kts | 72° |
| 2026-05-06 07:33 | -23.41669 | -46.41715 | 4428 ft | 203 kts | 71° |
| 2026-05-06 07:34 | -23.41204 | -46.40232 | 5165 ft | 211 kts | 71° |
| 2026-05-06 07:34 | -23.40720 | -46.38677 | 5788 ft | 224 kts | 71° |
| 2026-05-06 07:34 | -23.40195 | -46.37005 | 6296 ft | 243 kts | 70° |
| 2026-05-06 07:34 | -23.39479 | -46.35290 | 6748 ft | 262 kts | 62° |
| 2026-05-06 07:35 | -23.38529 | -46.33492 | 7314 ft | 277 kts | 58° |
| 2026-05-06 07:35 | -23.37452 | -46.31730 | 8075 ft | 282 kts | 55° |
| 2026-05-06 07:35 | -23.36300 | -46.30015 | 8838 ft | 286 kts | 57° |
| 2026-05-06 07:35 | -23.35215 | -46.28180 | 9605 ft | 290 kts | 59° |
| 2026-05-06 07:36 | -23.34158 | -46.26293 | 10345 ft | 294 kts | 59° |
| 2026-05-06 07:36 | -23.33077 | -46.24378 | 10981 ft | 302 kts | 59° |
| 2026-05-06 07:36 | -23.31916 | -46.22347 | 11281 ft | 322 kts | 59° |
| 2026-05-06 07:36 | -23.30711 | -46.20256 | 11608 ft | 337 kts | 59° |
| 2026-05-06 07:37 | -23.29444 | -46.18069 | 12169 ft | 344 kts | 58° |
| 2026-05-06 07:37 | -23.28162 | -46.15860 | 12864 ft | 347 kts | 58° |
| 2026-05-06 07:37 | -23.26864 | -46.13627 | 13543 ft | 351 kts | 58° |
| 2026-05-06 07:37 | -23.25553 | -46.11373 | 14191 ft | 355 kts | 58° |
| 2026-05-06 07:38 | -23.24226 | -46.09092 | 14820 ft | 358 kts | 59° |
| 2026-05-06 07:38 | -23.22880 | -46.06798 | 15424 ft | 363 kts | 57° |
| 2026-05-06 07:38 | -23.21224 | -46.04705 | 16000 ft | 369 kts | 43° |
| 2026-05-06 07:38 | -23.19100 | -46.03109 | 16540 ft | 375 kts | 30° |
| 2026-05-06 07:39 | -23.16669 | -46.02023 | 17059 ft | 381 kts | 18° |
| 2026-05-06 07:39 | -23.14119 | -46.01167 | 17571 ft | 386 kts | 18° |
| 2026-05-06 07:39 | -23.11495 | -46.00473 | 18070 ft | 391 kts | 11° |
| 2026-05-06 07:39 | -23.08788 | -46.00064 | 18580 ft | 394 kts | 7° |
| 2026-05-06 07:40 | -23.06044 | -45.99787 | 19058 ft | 398 kts | 6° |
| 2026-05-06 07:40 | -23.04214 | -45.99593 | 19370 ft | 401 kts | 6° |
| 2026-05-06 07:40 | -23.00482 | -45.99162 | 19976 ft | 405 kts | 6° |
| 2026-05-06 07:40 | -22.98620 | -45.98940 | 20274 ft | 408 kts | 6° |
| 2026-05-06 07:41 | -22.95781 | -45.98596 | 20721 ft | 411 kts | 6° |
| 2026-05-06 07:41 | -22.92010 | -45.98138 | 21327 ft | 413 kts | 6° |
| 2026-05-06 07:41 | -22.89146 | -45.97780 | 21744 ft | 416 kts | 7° |
| 2026-05-06 07:41 | -22.87209 | -45.97435 | 22018 ft | 418 kts | 11° |
| 2026-05-06 07:42 | -22.84356 | -45.96736 | 22422 ft | 421 kts | 13° |
| 2026-05-06 07:42 | -22.81516 | -45.95957 | 22814 ft | 423 kts | 14° |
| 2026-05-06 07:42 | -22.78682 | -45.95195 | 23190 ft | 426 kts | 13° |
| 2026-05-06 07:42 | -22.75796 | -45.94432 | 23567 ft | 428 kts | 13° |
| 2026-05-06 07:43 | -22.72892 | -45.93673 | 23936 ft | 431 kts | 13° |
| 2026-05-06 07:43 | -22.69967 | -45.92913 | 24295 ft | 433 kts | 13° |
| 2026-05-06 07:43 | -22.67029 | -45.92153 | 24653 ft | 435 kts | 13° |
| 2026-05-06 07:43 | -22.64069 | -45.91389 | 25010 ft | 438 kts | 13° |
| 2026-05-06 07:44 | -22.61106 | -45.90626 | 25350 ft | 440 kts | 13° |
| 2026-05-06 07:44 | -22.58119 | -45.89851 | 25686 ft | 442 kts | 13° |
| 2026-05-06 07:44 | -22.55119 | -45.89075 | 26014 ft | 445 kts | 13° |
| 2026-05-06 07:44 | -22.52102 | -45.88297 | 26337 ft | 447 kts | 13° |
| 2026-05-06 07:45 | -22.49071 | -45.87518 | 26655 ft | 449 kts | 13° |
| 2026-05-06 07:45 | -22.46027 | -45.86735 | 26963 ft | 451 kts | 12° |
| 2026-05-06 07:45 | -22.42956 | -45.85947 | 27267 ft | 453 kts | 12° |
| 2026-05-06 07:45 | -22.39877 | -45.85157 | 27565 ft | 455 kts | 12° |
| 2026-05-06 07:46 | -22.36786 | -45.84365 | 27831 ft | 458 kts | 12° |
| 2026-05-06 07:46 | -22.33673 | -45.83566 | 28093 ft | 461 kts | 12° |
| 2026-05-06 07:46 | -22.30580 | -45.82580 | 28350 ft | 464 kts | 20° |
| 2026-05-06 07:46 | -22.27628 | -45.81147 | 28593 ft | 467 kts | 28° |
| 2026-05-06 07:47 | -22.24881 | -45.79320 | 28726 ft | 473 kts | 35° |
| 2026-05-06 07:47 | -22.22240 | -45.77168 | 28914 ft | 476 kts | 39° |
| 2026-05-06 07:47 | -22.19672 | -45.74897 | 29136 ft | 479 kts | 40° |
| 2026-05-06 07:47 | -22.17089 | -45.72605 | 29362 ft | 481 kts | 39° |
| 2026-05-06 07:48 | -22.14485 | -45.70322 | 29595 ft | 483 kts | 39° |
| 2026-05-06 07:48 | -22.11873 | -45.68048 | 29909 ft | 483 kts | 39° |
| 2026-05-06 07:48 | -22.09254 | -45.65779 | 30216 ft | 483 kts | 39° |
| 2026-05-06 07:48 | -22.06634 | -45.63516 | 30514 ft | 483 kts | 39° |
| 2026-05-06 07:49 | -22.04006 | -45.61251 | 30817 ft | 484 kts | 39° |
| 2026-05-06 07:49 | -22.01373 | -45.58982 | 31122 ft | 484 kts | 39° |
| 2026-05-06 07:49 | -21.98751 | -45.56711 | 31423 ft | 484 kts | 39° |
| 2026-05-06 07:49 | -21.96114 | -45.54433 | 31725 ft | 485 kts | 39° |
| 2026-05-06 07:50 | -21.93484 | -45.52166 | 32023 ft | 485 kts | 39° |
| 2026-05-06 07:50 | -21.90881 | -45.49924 | 32317 ft | 485 kts | 39° |
| 2026-05-06 07:50 | -21.88241 | -45.47654 | 32610 ft | 486 kts | 39° |
| 2026-05-06 07:50 | -21.85595 | -45.45381 | 32914 ft | 486 kts | 38° |
| 2026-05-06 07:51 | -21.82951 | -45.43110 | 33207 ft | 486 kts | 38° |
| 2026-05-06 07:51 | -21.80296 | -45.40832 | 33257 ft | 489 kts | 38° |
| 2026-05-06 07:51 | -21.74980 | -45.36273 | 33252 ft | 487 kts | 39° |
| 2026-05-06 07:52 | -21.69687 | -45.31739 | 33247 ft | 487 kts | 39° |
| 2026-05-06 07:52 | -21.64390 | -45.27206 | 33246 ft | 487 kts | 39° |
| 2026-05-06 07:53 | -21.59119 | -45.22700 | 33245 ft | 487 kts | 38° |
| 2026-05-06 07:53 | -21.53826 | -45.18178 | 33245 ft | 486 kts | 38° |
| 2026-05-06 07:54 | -21.48526 | -45.13655 | 33246 ft | 486 kts | 38° |
| 2026-05-06 07:54 | -21.43227 | -45.09133 | 33242 ft | 483 kts | 39° |
| 2026-05-06 07:55 | -21.38039 | -45.04702 | 33242 ft | 472 kts | 38° |
| 2026-05-06 07:55 | -21.32917 | -45.00347 | 33187 ft | 470 kts | 38° |
| 2026-05-06 07:56 | -21.30357 | -44.98172 | 32894 ft | 466 kts | 38° |
| 2026-05-06 07:56 | -21.27831 | -44.96028 | 32505 ft | 461 kts | 38° |
| 2026-05-06 07:56 | -21.25318 | -44.93895 | 32091 ft | 458 kts | 38° |
| 2026-05-06 07:56 | -21.22823 | -44.91778 | 31683 ft | 455 kts | 38° |
| 2026-05-06 07:57 | -21.20353 | -44.89683 | 31283 ft | 452 kts | 38° |
| 2026-05-06 07:57 | -21.17902 | -44.87600 | 30983 ft | 446 kts | 38° |
| 2026-05-06 07:57 | -21.15486 | -44.85550 | 30731 ft | 439 kts | 38° |
| 2026-05-06 07:57 | -21.13141 | -44.83562 | 30483 ft | 433 kts | 38° |
| 2026-05-06 07:58 | -21.10779 | -44.81562 | 30234 ft | 433 kts | 38° |
| 2026-05-06 07:58 | -21.08413 | -44.79560 | 29984 ft | 434 kts | 39° |
| 2026-05-06 07:58 | -21.06037 | -44.77549 | 29733 ft | 434 kts | 39° |
| 2026-05-06 07:58 | -21.03668 | -44.75569 | 29477 ft | 429 kts | 37° |
| 2026-05-06 07:59 | -21.01257 | -44.73715 | 29232 ft | 421 kts | 35° |
| 2026-05-06 07:59 | -20.98900 | -44.71962 | 28862 ft | 405 kts | 35° |
| 2026-05-06 07:59 | -20.96633 | -44.70257 | 28491 ft | 395 kts | 35° |
| 2026-05-06 07:59 | -20.94369 | -44.68541 | 28116 ft | 401 kts | 35° |
| 2026-05-06 08:00 | -20.92077 | -44.66799 | 27731 ft | 407 kts | 35° |
| 2026-05-06 08:00 | -20.89759 | -44.65033 | 27335 ft | 410 kts | 36° |
| 2026-05-06 08:00 | -20.87467 | -44.63286 | 26936 ft | 398 kts | 36° |
| 2026-05-06 08:00 | -20.85246 | -44.61594 | 26547 ft | 384 kts | 36° |
| 2026-05-06 08:01 | -20.83095 | -44.59955 | 26169 ft | 379 kts | 36° |
| 2026-05-06 08:01 | -20.80884 | -44.58351 | 25788 ft | 387 kts | 31° |
| 2026-05-06 08:01 | -20.78469 | -44.57028 | 25397 ft | 393 kts | 23° |
| 2026-05-06 08:01 | -20.75880 | -44.56042 | 24991 ft | 394 kts | 16° |
| 2026-05-06 08:02 | -20.73270 | -44.55316 | 24592 ft | 380 kts | 13° |
| 2026-05-06 08:02 | -20.70740 | -44.54689 | 24205 ft | 367 kts | 13° |
| 2026-05-06 08:02 | -20.68295 | -44.53976 | 23891 ft | 367 kts | 16° |